createdAt,value
2023-01-25T00:04:51.671Z,14.40
2023-01-25T00:12:25.811Z,13.60
2023-01-25T00:20:00.990Z,13.57
2023-01-25T00:27:35.170Z,12.52
2023-01-25T00:35:12.819Z,14.35
2023-01-25T00:42:46.625Z,12.13
2023-01-25T00:50:22.322Z,12.27
2023-01-25T00:57:56.487Z,12.25
2023-01-25T01:05:31.661Z,13.00
2023-01-25T01:13:05.438Z,11.88
2023-01-25T01:20:40.614Z,14.27
2023-01-25T01:28:14.623Z,14.10
2023-01-25T01:35:49.741Z,12.93
2023-01-25T01:43:25.942Z,14.45
2023-01-25T01:51:04.384Z,13.68
2023-01-25T01:58:38.866Z,14.30
2023-01-25T02:06:16.500Z,12.95
2023-01-25T02:13:50.955Z,14.52
2023-01-25T02:21:26.588Z,12.15
2023-01-25T02:29:05.185Z,12.30
2023-01-25T02:36:39.363Z,13.55
2023-01-25T02:44:18.320Z,12.23
2023-01-25T02:51:55.921Z,11.90
2023-01-25T02:59:31.574Z,12.63
2023-01-25T03:07:05.660Z,12.32
2023-01-25T03:14:40.780Z,12.25
2023-01-25T03:22:14.887Z,12.77
2023-01-25T03:29:50.061Z,11.73
2023-01-25T03:37:23.991Z,11.43
2023-01-25T03:44:59.140Z,12.02
2023-01-25T03:52:38.506Z,11.93
2023-01-25T04:00:14.603Z,12.85
2023-01-25T04:07:48.812Z,13.25
2023-01-25T04:15:23.979Z,12.65
2023-01-25T04:22:57.873Z,11.77
2023-01-25T04:30:33.055Z,12.88
2023-01-25T04:38:07.121Z,11.23
2023-01-25T04:45:42.815Z,12.60
2023-01-25T04:53:16.960Z,9.38
2023-01-25T05:00:52.059Z,9.15
2023-01-25T05:08:27.984Z,9.95
2023-01-25T05:16:03.112Z,8.82
2023-01-25T05:23:36.841Z,9.90
2023-01-25T05:31:12.027Z,13.80
2023-01-25T05:38:46.150Z,10.65
2023-01-25T05:46:21.588Z,9.27
2023-01-25T05:53:55.775Z,8.45
2023-01-25T06:01:31.160Z,7.13
2023-01-25T06:09:05.089Z,8.40
2023-01-25T06:16:40.420Z,9.57
2023-01-25T06:24:14.502Z,10.23
2023-01-25T06:31:49.846Z,10.07
2023-01-25T06:39:23.724Z,8.88
2023-01-25T06:46:59.148Z,7.78
2023-01-25T06:54:33.164Z,7.40
2023-01-25T07:02:08.419Z,8.55
2023-01-25T07:09:42.729Z,9.23
2023-01-25T07:17:18.206Z,9.40
2023-01-25T07:24:53.928Z,9.20
2023-01-25T07:32:29.144Z,9.52
2023-01-25T07:40:03.043Z,9.65
2023-01-25T07:47:38.272Z,10.20
2023-01-25T07:55:12.553Z,9.52
2023-01-25T08:10:26.011Z,9.95
2023-01-25T08:18:02.018Z,11.57
2023-01-25T08:25:35.835Z,9.93
2023-01-25T08:33:11.058Z,8.83
2023-01-25T08:40:45.182Z,8.93
2023-01-25T08:48:20.419Z,11.13
2023-01-25T08:55:54.216Z,11.10
2023-01-25T09:03:29.388Z,10.37
2023-01-25T09:11:04.845Z,8.88
2023-01-25T09:18:44.638Z,10.07
2023-01-25T09:26:18.978Z,11.13
2023-01-25T09:41:47.684Z,11.43
2023-01-25T09:49:44.455Z,11.82
2023-01-25T09:57:22.203Z,12.30
2023-01-25T10:05:03.956Z,13.65
2023-01-25T10:12:39.928Z,12.77
2023-01-25T10:20:33.847Z,12.45
2023-01-25T10:28:23.075Z,13.25
2023-01-25T10:36:02.258Z,16.90
2023-01-25T10:43:36.285Z,15.27
2023-01-25T10:51:28.990Z,14.25
2023-01-25T10:59:16.484Z,15.00
2023-01-25T11:06:52.604Z,13.68
2023-01-25T11:14:29.827Z,17.42
2023-01-25T11:22:07.604Z,15.93
2023-01-25T11:29:41.721Z,15.23
2023-01-25T11:37:42.256Z,13.13
2023-01-25T11:45:52.462Z,15.63
2023-01-25T11:54:04.783Z,15.38
2023-01-25T12:01:49.473Z,18.00
2023-01-25T12:17:24.605Z,16.65
2023-01-25T12:25:11.309Z,16.13
2023-01-25T12:32:53.844Z,15.32
2023-01-25T12:40:44.629Z,15.33
2023-01-25T12:48:23.844Z,13.65
2023-01-25T12:56:00.109Z,12.25
2023-01-25T13:03:41.032Z,13.10
2023-01-25T13:11:20.714Z,15.00
2023-01-25T13:18:55.140Z,14.05
2023-01-25T13:26:48.603Z,10.82
2023-01-25T13:34:59.140Z,12.68
2023-01-25T13:42:36.927Z,11.88
2023-01-25T13:50:21.954Z,12.35
2023-01-25T13:58:16.146Z,12.25
2023-01-25T14:05:52.444Z,13.27
2023-01-25T14:13:27.735Z,11.75
2023-01-25T14:21:14.816Z,12.57
2023-01-25T14:29:01.027Z,11.10
2023-01-25T14:36:36.205Z,11.23
2023-01-25T14:44:15.521Z,10.75
2023-01-25T14:51:51.808Z,11.00
2023-01-25T14:59:32.170Z,10.73
2023-01-25T15:07:17.750Z,10.52
2023-01-25T15:14:57.327Z,10.10
2023-01-25T15:22:32.572Z,11.65
2023-01-25T15:30:13.576Z,11.45
2023-01-25T15:37:49.382Z,11.55
2023-01-25T15:45:25.061Z,11.15
2023-01-25T15:52:59.021Z,13.77
2023-01-25T16:00:38.228Z,11.70
2023-01-25T16:08:16.816Z,9.98
2023-01-25T16:15:55.001Z,8.95
2023-01-25T16:23:29.041Z,8.80
2023-01-25T16:31:04.272Z,9.82
2023-01-25T16:38:38.042Z,9.57
2023-01-25T16:46:17.664Z,9.80
2023-01-25T16:53:54.107Z,10.88
2023-01-25T17:01:29.617Z,11.00
2023-01-25T17:09:20.543Z,10.68
2023-01-25T17:16:57.159Z,11.32
2023-01-25T17:24:31.027Z,11.23
2023-01-25T17:32:06.722Z,9.88
2023-01-25T17:39:40.438Z,9.30
2023-01-25T17:47:15.766Z,11.03
2023-01-25T17:54:49.611Z,9.68
2023-01-25T18:02:24.714Z,10.05
2023-01-25T18:09:58.638Z,9.85
2023-01-25T18:17:36.156Z,9.43
2023-01-25T18:25:29.816Z,9.15
2023-01-25T18:33:05.605Z,7.30
2023-01-25T18:40:40.227Z,9.77
2023-01-25T18:48:19.743Z,10.57
2023-01-25T18:56:01.149Z,10.32
2023-01-25T19:03:36.238Z,10.05
2023-01-25T19:11:14.350Z,9.95
2023-01-25T19:18:52.047Z,9.77
2023-01-25T19:26:27.102Z,10.02
2023-01-25T19:34:03.867Z,9.93
2023-01-25T19:41:39.055Z,8.18
2023-01-25T19:49:15.109Z,9.27
2023-01-25T19:56:50.225Z,8.40
2023-01-25T20:04:25.807Z,10.35
2023-01-25T20:12:00.725Z,8.13
2023-01-25T20:19:37.169Z,8.63
2023-01-25T20:27:10.893Z,8.45
2023-01-25T20:34:46.668Z,8.95
2023-01-25T20:42:20.539Z,7.68
2023-01-25T20:49:55.667Z,7.40
2023-01-25T20:57:29.540Z,9.82
2023-01-25T21:05:05.137Z,9.80
2023-01-25T21:12:39.895Z,8.57
2023-01-25T21:20:15.441Z,9.00
2023-01-25T21:27:49.912Z,7.82
2023-01-25T21:35:25.179Z,8.27
2023-01-25T21:42:58.858Z,8.90
2023-01-25T21:50:51.383Z,8.95
2023-01-25T21:58:25.461Z,10.95
2023-01-25T22:06:00.579Z,9.07
2023-01-25T22:13:34.850Z,8.10
2023-01-25T22:21:16.593Z,9.05
2023-01-25T22:28:52.422Z,7.28
2023-01-25T22:36:28.962Z,8.05
2023-01-25T22:44:02.703Z,7.32
2023-01-25T22:51:37.835Z,7.22
2023-01-25T22:59:14.901Z,7.88
2023-01-25T23:06:50.273Z,7.13
2023-01-25T23:14:41.553Z,7.25
2023-01-25T23:22:16.731Z,8.60
2023-01-25T23:29:51.776Z,7.68
2023-01-25T23:37:28.188Z,7.78
2023-01-25T23:45:02.062Z,8.18
2023-01-25T23:52:37.786Z,8.07
